sensor_id;sensor_type;location;lat;lon;timestamp;pressure;altitude;pressure_sealevel;temperature;humidity
72570;BME280;60594;50.204;8.844;2022-07-30T00:00:42;100022.28;;;18.80;79.36
72570;BME280;60594;50.204;8.844;2022-07-30T00:03:09;100009.28;;;18.83;77.53
72570;BME280;60594;50.204;8.844;2022-07-30T00:05:36;100016.81;;;18.88;78.06
72570;BME280;60594;50.204;8.844;2022-07-30T00:08:02;100006.00;;;18.88;78.08
72570;BME280;60594;50.204;8.844;2022-07-30T00:10:29;100014.13;;;18.88;78.19
72570;BME280;60594;50.204;8.844;2022-07-30T00:12:56;99999.00;;;18.79;78.82
72570;BME280;60594;50.204;8.844;2022-07-30T00:15:22;99992.56;;;18.80;78.67
72570;BME280;60594;50.204;8.844;2022-07-30T00:17:49;99986.56;;;18.70;78.52
72570;BME280;60594;50.204;8.844;2022-07-30T00:20:16;100002.59;;;18.71;78.57
72570;BME280;60594;50.204;8.844;2022-07-30T00:22:42;100003.31;;;18.65;79.94
72570;BME280;60594;50.204;8.844;2022-07-30T00:25:09;100004.16;;;18.66;79.00
72570;BME280;60594;50.204;8.844;2022-07-30T00:27:36;99998.97;;;18.56;79.82
72570;BME280;60594;50.204;8.844;2022-07-30T00:30:05;100005.88;;;18.59;79.67
72570;BME280;60594;50.204;8.844;2022-07-30T00:32:34;99997.78;;;18.59;78.66
72570;BME280;60594;50.204;8.844;2022-07-30T00:35:03;99996.81;;;18.52;78.74
72570;BME280;60594;50.204;8.844;2022-07-30T00:37:29;99996.50;;;18.47;79.35
72570;BME280;60594;50.204;8.844;2022-07-30T00:39:56;99994.66;;;18.47;77.80
72570;BME280;60594;50.204;8.844;2022-07-30T00:42:22;100002.41;;;18.50;77.70
72570;BME280;60594;50.204;8.844;2022-07-30T00:44:51;99993.16;;;18.45;78.17
72570;BME280;60594;50.204;8.844;2022-07-30T00:47:19;99988.53;;;18.23;79.89
72570;BME280;60594;50.204;8.844;2022-07-30T00:49:45;99992.00;;;18.31;78.64
72570;BME280;60594;50.204;8.844;2022-07-30T00:52:13;99991.75;;;18.18;79.51
72570;BME280;60594;50.204;8.844;2022-07-30T00:54:40;99983.16;;;18.23;78.69
72570;BME280;60594;50.204;8.844;2022-07-30T00:57:06;99992.69;;;18.33;77.98
72570;BME280;60594;50.204;8.844;2022-07-30T00:59:33;99981.22;;;18.31;79.01
72570;BME280;60594;50.204;8.844;2022-07-30T01:01:59;99980.19;;;18.40;78.11
72570;BME280;60594;50.204;8.844;2022-07-30T01:04:27;99974.16;;;18.30;78.90
72570;BME280;60594;50.204;8.844;2022-07-30T01:06:54;99966.78;;;18.24;78.78
72570;BME280;60594;50.204;8.844;2022-07-30T01:09:21;99970.31;;;18.25;78.63
72570;BME280;60594;50.204;8.844;2022-07-30T01:11:48;99970.66;;;18.22;78.28
72570;BME280;60594;50.204;8.844;2022-07-30T01:14:14;99968.25;;;17.96;80.77
72570;BME280;60594;50.204;8.844;2022-07-30T01:16:42;99956.44;;;17.97;80.46
72570;BME280;60594;50.204;8.844;2022-07-30T01:19:35;99959.97;;;18.06;79.59
72570;BME280;60594;50.204;8.844;2022-07-30T01:27:49;99964.13;;;17.78;81.21
72570;BME280;60594;50.204;8.844;2022-07-30T01:30:19;99959.28;;;17.73;80.95
72570;BME280;60594;50.204;8.844;2022-07-30T01:32:48;99961.97;;;17.73;80.80
72570;BME280;60594;50.204;8.844;2022-07-30T01:35:17;99964.97;;;17.78;81.01
72570;BME280;60594;50.204;8.844;2022-07-30T01:37:45;99965.47;;;17.74;81.45
72570;BME280;60594;50.204;8.844;2022-07-30T01:40:12;99975.66;;;17.64;82.21
72570;BME280;60594;50.204;8.844;2022-07-30T01:42:41;99972.78;;;17.57;81.74
72570;BME280;60594;50.204;8.844;2022-07-30T01:45:10;99974.97;;;17.62;81.93
72570;BME280;60594;50.204;8.844;2022-07-30T01:47:40;99961.00;;;17.50;81.58
72570;BME280;60594;50.204;8.844;2022-07-30T01:50:10;99966.72;;;17.63;80.57
72570;BME280;60594;50.204;8.844;2022-07-30T01:52:42;99969.75;;;17.60;81.21
72570;BME280;60594;50.204;8.844;2022-07-30T01:55:13;99978.13;;;17.65;81.95
72570;BME280;60594;50.204;8.844;2022-07-30T01:57:42;99982.72;;;17.65;81.69
72570;BME280;60594;50.204;8.844;2022-07-30T02:00:11;99984.03;;;17.69;80.96
72570;BME280;60594;50.204;8.844;2022-07-30T02:02:44;99990.47;;;17.68;80.63
72570;BME280;60594;50.204;8.844;2022-07-30T02:05:13;99989.47;;;17.61;80.44
72570;BME280;60594;50.204;8.844;2022-07-30T02:07:58;99994.50;;;17.56;80.80
72570;BME280;60594;50.204;8.844;2022-07-30T02:10:41;99980.56;;;17.44;81.02
72570;BME280;60594;50.204;8.844;2022-07-30T02:13:20;99997.22;;;17.48;80.76
72570;BME280;60594;50.204;8.844;2022-07-30T02:15:53;99990.81;;;17.41;80.64
72570;BME280;60594;50.204;8.844;2022-07-30T02:18:45;99992.69;;;17.40;81.56
72570;BME280;60594;50.204;8.844;2022-07-30T02:21:16;99987.97;;;17.34;81.64
72570;BME280;60594;50.204;8.844;2022-07-30T02:23:45;99994.22;;;17.35;80.98
72570;BME280;60594;50.204;8.844;2022-07-30T02:26:17;100002.28;;;17.35;81.07
72570;BME280;60594;50.204;8.844;2022-07-30T02:28:47;99998.09;;;17.32;81.68
72570;BME280;60594;50.204;8.844;2022-07-30T02:31:16;99995.56;;;17.31;81.08
72570;BME280;60594;50.204;8.844;2022-07-30T02:33:48;100008.00;;;17.32;81.31
72570;BME280;60594;50.204;8.844;2022-07-30T02:36:18;100009.34;;;17.36;81.82
72570;BME280;60594;50.204;8.844;2022-07-30T02:38:46;100009.19;;;17.29;82.33
72570;BME280;60594;50.204;8.844;2022-07-30T02:41:18;100013.06;;;17.35;81.99
72570;BME280;60594;50.204;8.844;2022-07-30T02:43:47;100004.78;;;17.28;81.12
72570;BME280;60594;50.204;8.844;2022-07-30T02:46:20;100016.44;;;17.29;81.54
72570;BME280;60594;50.204;8.844;2022-07-30T02:49:12;100017.28;;;17.29;80.22
72570;BME280;60594;50.204;8.844;2022-07-30T02:51:41;100027.88;;;17.31;80.08
72570;BME280;60594;50.204;8.844;2022-07-30T02:54:08;100028.38;;;17.26;80.68
72570;BME280;60594;50.204;8.844;2022-07-30T02:56:36;100031.25;;;17.25;81.82
72570;BME280;60594;50.204;8.844;2022-07-30T02:59:04;100026.72;;;17.25;82.25
72570;BME280;60594;50.204;8.844;2022-07-30T03:01:32;100033.94;;;17.25;82.66
72570;BME280;60594;50.204;8.844;2022-07-30T03:04:01;100028.88;;;17.22;82.18
72570;BME280;60594;50.204;8.844;2022-07-30T03:06:29;100029.59;;;17.16;82.57
72570;BME280;60594;50.204;8.844;2022-07-30T03:08:58;100032.28;;;17.24;83.15
72570;BME280;60594;50.204;8.844;2022-07-30T03:11:28;100025.69;;;17.18;82.78
72570;BME280;60594;50.204;8.844;2022-07-30T03:13:55;100033.25;;;17.23;82.92
72570;BME280;60594;50.204;8.844;2022-07-30T03:16:23;100030.06;;;17.27;82.40
72570;BME280;60594;50.204;8.844;2022-07-30T03:18:53;100020.31;;;17.26;81.39
72570;BME280;60594;50.204;8.844;2022-07-30T03:21:22;100048.91;;;17.35;81.85
72570;BME280;60594;50.204;8.844;2022-07-30T03:23:54;100030.56;;;17.23;82.10
72570;BME280;60594;50.204;8.844;2022-07-30T03:26:23;100041.19;;;17.32;82.15
72570;BME280;60594;50.204;8.844;2022-07-30T03:28:50;100047.75;;;17.38;81.50
72570;BME280;60594;50.204;8.844;2022-07-30T03:31:17;100051.09;;;17.40;81.49
72570;BME280;60594;50.204;8.844;2022-07-30T03:33:46;100040.50;;;17.30;83.01
72570;BME280;60594;50.204;8.844;2022-07-30T03:36:14;100028.72;;;17.23;82.85
72570;BME280;60594;50.204;8.844;2022-07-30T03:38:42;100046.38;;;17.26;83.20
72570;BME280;60594;50.204;8.844;2022-07-30T03:41:10;100049.28;;;17.32;82.22
72570;BME280;60594;50.204;8.844;2022-07-30T03:43:39;100050.97;;;17.25;83.13
72570;BME280;60594;50.204;8.844;2022-07-30T03:46:06;100035.28;;;17.21;82.89
72570;BME280;60594;50.204;8.844;2022-07-30T03:48:39;100033.59;;;17.28;82.46
72570;BME280;60594;50.204;8.844;2022-07-30T03:51:06;100045.06;;;17.38;82.14
72570;BME280;60594;50.204;8.844;2022-07-30T03:53:39;100047.78;;;17.46;80.60
72570;BME280;60594;50.204;8.844;2022-07-30T03:56:25;100046.44;;;17.42;81.67
72570;BME280;60594;50.204;8.844;2022-07-30T03:59:02;100039.47;;;17.39;81.65
72570;BME280;60594;50.204;8.844;2022-07-30T04:01:29;100045.41;;;17.43;81.45
72570;BME280;60594;50.204;8.844;2022-07-30T04:04:07;100051.09;;;17.40;81.41
72570;BME280;60594;50.204;8.844;2022-07-30T04:06:36;100051.44;;;17.37;81.01
72570;BME280;60594;50.204;8.844;2022-07-30T04:09:07;100051.97;;;17.40;80.79
72570;BME280;60594;50.204;8.844;2022-07-30T04:11:34;100061.06;;;17.47;80.60
72570;BME280;60594;50.204;8.844;2022-07-30T04:14:05;100053.78;;;17.40;80.89
72570;BME280;60594;50.204;8.844;2022-07-30T04:17:00;100061.38;;;17.36;81.68
72570;BME280;60594;50.204;8.844;2022-07-30T04:19:45;100069.66;;;17.27;82.85
72570;BME280;60594;50.204;8.844;2022-07-30T04:22:15;100073.50;;;17.24;83.11
72570;BME280;60594;50.204;8.844;2022-07-30T04:24:45;100071.66;;;17.25;82.74
72570;BME280;60594;50.204;8.844;2022-07-30T04:27:14;100080.06;;;17.30;82.18
72570;BME280;60594;50.204;8.844;2022-07-30T04:29:42;100078.88;;;17.24;83.64
72570;BME280;60594;50.204;8.844;2022-07-30T04:32:08;100066.75;;;17.20;83.67
72570;BME280;60594;50.204;8.844;2022-07-30T04:34:57;100072.50;;;17.25;83.71
72570;BME280;60594;50.204;8.844;2022-07-30T04:37:50;100068.63;;;17.28;83.56
72570;BME280;60594;50.204;8.844;2022-07-30T04:40:16;100081.06;;;17.29;83.67
72570;BME280;60594;50.204;8.844;2022-07-30T04:42:43;100069.66;;;17.27;82.96
72570;BME280;60594;50.204;8.844;2022-07-30T04:45:11;100086.84;;;17.42;82.18
72570;BME280;60594;50.204;8.844;2022-07-30T04:47:58;100085.47;;;17.38;82.31
72570;BME280;60594;50.204;8.844;2022-07-30T04:50:46;100087.66;;;17.26;83.59
72570;BME280;60594;50.204;8.844;2022-07-30T04:53:17;100090.19;;;17.36;81.38
72570;BME280;60594;50.204;8.844;2022-07-30T04:55:51;100092.19;;;17.10;82.79
72570;BME280;60594;50.204;8.844;2022-07-30T04:58:19;100098.44;;;17.18;81.97
72570;BME280;60594;50.204;8.844;2022-07-30T05:00:47;100104.25;;;16.81;84.32
72570;BME280;60594;50.204;8.844;2022-07-30T05:03:19;100100.72;;;16.73;84.74
72570;BME280;60594;50.204;8.844;2022-07-30T05:05:50;100107.81;;;16.90;83.37
72570;BME280;60594;50.204;8.844;2022-07-30T05:08:18;100110.81;;;16.95;83.09
72570;BME280;60594;50.204;8.844;2022-07-30T05:10:45;100113.88;;;16.92;83.69
72570;BME280;60594;50.204;8.844;2022-07-30T05:13:13;100108.34;;;16.94;83.20
72570;BME280;60594;50.204;8.844;2022-07-30T05:15:41;100113.34;;;16.88;83.70
72570;BME280;60594;50.204;8.844;2022-07-30T05:18:11;100113.66;;;16.85;83.99
72570;BME280;60594;50.204;8.844;2022-07-30T05:20:41;100114.19;;;16.81;84.63
72570;BME280;60594;50.204;8.844;2022-07-30T05:23:15;100119.25;;;16.92;83.47
72570;BME280;60594;50.204;8.844;2022-07-30T05:25:47;100120.41;;;16.89;83.27
72570;BME280;60594;50.204;8.844;2022-07-30T05:28:17;100121.94;;;16.92;83.23
72570;BME280;60594;50.204;8.844;2022-07-30T05:30:47;100120.91;;;16.77;84.31
72570;BME280;60594;50.204;8.844;2022-07-30T05:33:17;100117.88;;;16.80;84.25
72570;BME280;60594;50.204;8.844;2022-07-30T05:35:44;100115.00;;;16.81;83.80
72570;BME280;60594;50.204;8.844;2022-07-30T05:38:10;100127.97;;;16.78;85.24
72570;BME280;60594;50.204;8.844;2022-07-30T05:40:53;100129.72;;;16.45;85.80
72570;BME280;60594;50.204;8.844;2022-07-30T05:43:51;100124.09;;;16.39;85.92
72570;BME280;60594;50.204;8.844;2022-07-30T05:46:19;100133.06;;;16.47;86.31
72570;BME280;60594;50.204;8.844;2022-07-30T05:48:46;100138.88;;;16.68;84.99
72570;BME280;60594;50.204;8.844;2022-07-30T05:51:14;100133.84;;;16.81;84.80
72570;BME280;60594;50.204;8.844;2022-07-30T05:53:40;100133.88;;;16.89;84.92
72570;BME280;60594;50.204;8.844;2022-07-30T05:56:09;100127.97;;;16.86;85.41
72570;BME280;60594;50.204;8.844;2022-07-30T05:58:52;100127.50;;;16.99;84.25
72570;BME280;60594;50.204;8.844;2022-07-30T06:01:30;100127.84;;;16.96;85.00
72570;BME280;60594;50.204;8.844;2022-07-30T06:04:02;100132.09;;;17.14;83.42
72570;BME280;60594;50.204;8.844;2022-07-30T06:06:40;100135.78;;;17.13;84.51
72570;BME280;60594;50.204;8.844;2022-07-30T06:09:07;100133.78;;;17.15;84.43
72570;BME280;60594;50.204;8.844;2022-07-30T06:11:34;100136.13;;;17.10;84.71
72570;BME280;60594;50.204;8.844;2022-07-30T06:14:01;100149.25;;;17.13;85.78
72570;BME280;60594;50.204;8.844;2022-07-30T06:16:27;100136.28;;;17.17;85.66
72570;BME280;60594;50.204;8.844;2022-07-30T06:18:55;100138.59;;;16.88;86.10
72570;BME280;60594;50.204;8.844;2022-07-30T06:21:42;100148.72;;;16.94;86.67
72570;BME280;60594;50.204;8.844;2022-07-30T06:24:11;100140.66;;;17.26;84.44
72570;BME280;60594;50.204;8.844;2022-07-30T06:27:04;100150.47;;;17.27;86.04
72570;BME280;60594;50.204;8.844;2022-07-30T06:29:31;100144.78;;;17.46;83.51
72570;BME280;60594;50.204;8.844;2022-07-30T06:31:57;100147.78;;;17.59;83.03
72570;BME280;60594;50.204;8.844;2022-07-30T06:34:24;100156.03;;;17.65;83.75
72570;BME280;60594;50.204;8.844;2022-07-30T06:36:52;100143.94;;;17.69;82.61
72570;BME280;60594;50.204;8.844;2022-07-30T06:39:20;100147.13;;;17.73;82.86
72570;BME280;60594;50.204;8.844;2022-07-30T06:41:58;100147.25;;;17.87;81.18
72570;BME280;60594;50.204;8.844;2022-07-30T06:44:42;100142.88;;;18.02;81.32
72570;BME280;60594;50.204;8.844;2022-07-30T06:47:09;100141.34;;;18.16;78.46
72570;BME280;60594;50.204;8.844;2022-07-30T06:49:38;100138.13;;;18.12;80.06
72570;BME280;60594;50.204;8.844;2022-07-30T06:52:08;100145.53;;;18.18;78.86
72570;BME280;60594;50.204;8.844;2022-07-30T06:54:35;100146.03;;;18.30;79.41
72570;BME280;60594;50.204;8.844;2022-07-30T06:57:07;100149.06;;;18.11;79.66
72570;BME280;60594;50.204;8.844;2022-07-30T06:59:34;100142.69;;;17.96;80.16
72570;BME280;60594;50.204;8.844;2022-07-30T07:02:13;100147.91;;;18.05;80.91
72570;BME280;60594;50.204;8.844;2022-07-30T07:05:03;100151.09;;;18.17;79.26
72570;BME280;60594;50.204;8.844;2022-07-30T07:07:31;100151.41;;;18.38;78.63
72570;BME280;60594;50.204;8.844;2022-07-30T07:09:57;100155.97;;;18.29;77.72
72570;BME280;60594;50.204;8.844;2022-07-30T07:12:50;100157.66;;;18.22;78.73
72570;BME280;60594;50.204;8.844;2022-07-30T07:15:20;100156.81;;;18.30;79.26
72570;BME280;60594;50.204;8.844;2022-07-30T07:17:48;100158.75;;;18.52;78.36
72570;BME280;60594;50.204;8.844;2022-07-30T07:20:32;100155.22;;;18.59;79.09
72570;BME280;60594;50.204;8.844;2022-07-30T07:23:03;100151.38;;;18.84;74.22
72570;BME280;60594;50.204;8.844;2022-07-30T07:25:31;100152.44;;;19.06;71.99
72570;BME280;60594;50.204;8.844;2022-07-30T07:27:58;100154.25;;;19.13;72.58
72570;BME280;60594;50.204;8.844;2022-07-30T07:30:25;100154.84;;;19.23;72.55
72570;BME280;60594;50.204;8.844;2022-07-30T07:32:51;100161.44;;;19.29;71.81
72570;BME280;60594;50.204;8.844;2022-07-30T07:35:32;100157.31;;;19.41;70.16
72570;BME280;60594;50.204;8.844;2022-07-30T07:37:59;100160.78;;;19.49;69.85
72570;BME280;60594;50.204;8.844;2022-07-30T07:40:27;100156.38;;;19.71;68.21
72570;BME280;60594;50.204;8.844;2022-07-30T07:42:55;100149.03;;;19.42;70.36
72570;BME280;60594;50.204;8.844;2022-07-30T07:45:22;100144.44;;;19.65;71.58
72570;BME280;60594;50.204;8.844;2022-07-30T07:47:54;100143.75;;;19.63;71.92
72570;BME280;60594;50.204;8.844;2022-07-30T07:50:43;100144.19;;;19.89;70.07
72570;BME280;60594;50.204;8.844;2022-07-30T07:53:17;100153.97;;;20.13;68.03
72570;BME280;60594;50.204;8.844;2022-07-30T07:55:44;100151.31;;;20.05;68.58
72570;BME280;60594;50.204;8.844;2022-07-30T07:58:11;100155.06;;;20.04;68.53
72570;BME280;60594;50.204;8.844;2022-07-30T08:00:39;100147.78;;;20.04;68.53
72570;BME280;60594;50.204;8.844;2022-07-30T08:03:06;100150.28;;;20.06;67.97
72570;BME280;60594;50.204;8.844;2022-07-30T08:05:33;100144.63;;;20.16;67.83
72570;BME280;60594;50.204;8.844;2022-07-30T08:08:10;100144.84;;;20.29;66.69
72570;BME280;60594;50.204;8.844;2022-07-30T08:11:00;100147.72;;;20.71;64.27
72570;BME280;60594;50.204;8.844;2022-07-30T08:13:45;100150.69;;;20.90;63.59
72570;BME280;60594;50.204;8.844;2022-07-30T08:16:30;100142.78;;;20.74;63.89
72570;BME280;60594;50.204;8.844;2022-07-30T08:19:16;100150.03;;;20.88;63.33
72570;BME280;60594;50.204;8.844;2022-07-30T08:21:49;100147.97;;;21.05;61.40
72570;BME280;60594;50.204;8.844;2022-07-30T08:24:18;100146.06;;;21.20;61.20
72570;BME280;60594;50.204;8.844;2022-07-30T08:26:44;100154.28;;;21.12;61.16
72570;BME280;60594;50.204;8.844;2022-07-30T08:29:12;100143.06;;;21.15;62.17
72570;BME280;60594;50.204;8.844;2022-07-30T08:31:38;100156.00;;;21.34;60.48
72570;BME280;60594;50.204;8.844;2022-07-30T08:34:05;100142.25;;;21.35;59.06
72570;BME280;60594;50.204;8.844;2022-07-30T08:36:31;100161.50;;;21.40;58.69
72570;BME280;60594;50.204;8.844;2022-07-30T08:38:58;100153.69;;;21.52;59.20
72570;BME280;60594;50.204;8.844;2022-07-30T08:41:25;100142.66;;;21.74;57.52
72570;BME280;60594;50.204;8.844;2022-07-30T08:43:52;100157.13;;;21.81;57.28
72570;BME280;60594;50.204;8.844;2022-07-30T08:46:23;100148.25;;;21.94;58.19
72570;BME280;60594;50.204;8.844;2022-07-30T08:49:10;100153.97;;;22.05;57.07
72570;BME280;60594;50.204;8.844;2022-07-30T08:51:40;100157.88;;;22.24;58.30
72570;BME280;60594;50.204;8.844;2022-07-30T08:54:26;100154.84;;;22.40;56.77
72570;BME280;60594;50.204;8.844;2022-07-30T08:56:57;100160.19;;;22.27;57.80
72570;BME280;60594;50.204;8.844;2022-07-30T08:59:25;100160.84;;;22.35;55.95
72570;BME280;60594;50.204;8.844;2022-07-30T09:01:52;100161.00;;;22.55;56.72
72570;BME280;60594;50.204;8.844;2022-07-30T09:04:19;100162.47;;;22.51;57.47
72570;BME280;60594;50.204;8.844;2022-07-30T09:06:46;100158.81;;;22.71;57.37
72570;BME280;60594;50.204;8.844;2022-07-30T09:09:13;100157.84;;;22.85;56.87
72570;BME280;60594;50.204;8.844;2022-07-30T09:11:43;100160.44;;;23.07;55.62
72570;BME280;60594;50.204;8.844;2022-07-30T09:14:12;100157.31;;;23.10;57.36
72570;BME280;60594;50.204;8.844;2022-07-30T09:16:40;100151.72;;;23.24;53.01
72570;BME280;60594;50.204;8.844;2022-07-30T09:19:25;100153.19;;;23.27;50.19
72570;BME280;60594;50.204;8.844;2022-07-30T09:21:59;100158.00;;;23.25;49.75
72570;BME280;60594;50.204;8.844;2022-07-30T09:24:49;100161.16;;;23.28;50.87
72570;BME280;60594;50.204;8.844;2022-07-30T09:27:45;100156.56;;;23.35;52.11
72570;BME280;60594;50.204;8.844;2022-07-30T09:30:54;100156.63;;;23.81;50.82
72570;BME280;60594;50.204;8.844;2022-07-30T09:33:53;100153.28;;;23.85;49.71
72570;BME280;60594;50.204;8.844;2022-07-30T09:36:38;100166.47;;;23.69;48.73
72570;BME280;60594;50.204;8.844;2022-07-30T09:42:20;100164.56;;;23.63;50.30
72570;BME280;60594;50.204;8.844;2022-07-30T09:44:47;100163.72;;;23.62;48.97
72570;BME280;60594;50.204;8.844;2022-07-30T09:47:31;100156.00;;;23.66;50.23
72570;BME280;60594;50.204;8.844;2022-07-30T09:50:03;100145.78;;;24.00;47.37
72570;BME280;60594;50.204;8.844;2022-07-30T09:52:31;100145.94;;;24.18;46.47
72570;BME280;60594;50.204;8.844;2022-07-30T09:54:58;100149.56;;;24.06;47.39
72570;BME280;60594;50.204;8.844;2022-07-30T09:57:28;100156.41;;;23.89;46.45
72570;BME280;60594;50.204;8.844;2022-07-30T10:00:16;100163.31;;;23.72;47.78
72570;BME280;60594;50.204;8.844;2022-07-30T10:02:47;100157.63;;;23.54;47.13
72570;BME280;60594;50.204;8.844;2022-07-30T10:05:34;100152.84;;;23.49;47.38
72570;BME280;60594;50.204;8.844;2022-07-30T10:08:01;100157.22;;;23.57;48.83
72570;BME280;60594;50.204;8.844;2022-07-30T10:10:30;100149.75;;;24.04;46.92
72570;BME280;60594;50.204;8.844;2022-07-30T10:13:02;100151.31;;;24.57;45.56
72570;BME280;60594;50.204;8.844;2022-07-30T10:15:31;100148.75;;;24.82;43.82
72570;BME280;60594;50.204;8.844;2022-07-30T10:18:00;100155.78;;;25.02;44.97
72570;BME280;60594;50.204;8.844;2022-07-30T10:20:50;100154.03;;;25.21;42.11
72570;BME280;60594;50.204;8.844;2022-07-30T10:23:50;100156.13;;;25.25;42.72
72570;BME280;60594;50.204;8.844;2022-07-30T10:26:36;100156.72;;;25.27;42.25
72570;BME280;60594;50.204;8.844;2022-07-30T10:29:23;100145.28;;;25.50;41.91
72570;BME280;60594;50.204;8.844;2022-07-30T10:31:52;100142.78;;;25.48;39.80
72570;BME280;60594;50.204;8.844;2022-07-30T10:34:19;100135.84;;;25.77;43.41
72570;BME280;60594;50.204;8.844;2022-07-30T10:36:49;100136.72;;;26.02;38.90
72570;BME280;60594;50.204;8.844;2022-07-30T10:39:27;100138.59;;;26.02;38.08
72570;BME280;60594;50.204;8.844;2022-07-30T10:45:19;100140.53;;;25.94;40.17
72570;BME280;60594;50.204;8.844;2022-07-30T10:47:50;100141.63;;;25.62;38.98
72570;BME280;60594;50.204;8.844;2022-07-30T10:50:20;100144.53;;;24.86;39.71
72570;BME280;60594;50.204;8.844;2022-07-30T10:52:55;100144.38;;;24.81;41.06
72570;BME280;60594;50.204;8.844;2022-07-30T10:55:24;100144.53;;;24.92;39.83
72570;BME280;60594;50.204;8.844;2022-07-30T11:00:25;100141.34;;;25.39;42.08
72570;BME280;60594;50.204;8.844;2022-07-30T11:05:42;100133.00;;;25.28;38.38
72570;BME280;60594;50.204;8.844;2022-07-30T11:08:28;100121.47;;;25.88;37.73
72570;BME280;60594;50.204;8.844;2022-07-30T11:10:57;100128.13;;;26.23;38.10
72570;BME280;60594;50.204;8.844;2022-07-30T11:13:54;100126.47;;;26.58;38.46
72570;BME280;60594;50.204;8.844;2022-07-30T11:19:19;100118.16;;;27.01;39.46
72570;BME280;60594;50.204;8.844;2022-07-30T11:22:22;100129.94;;;27.19;36.14
72570;BME280;60594;50.204;8.844;2022-07-30T11:24:51;100129.78;;;27.14;36.03
72570;BME280;60594;50.204;8.844;2022-07-30T11:27:40;100128.06;;;26.05;37.99
72570;BME280;60594;50.204;8.844;2022-07-30T11:36:07;100122.84;;;26.04;37.12
72570;BME280;60594;50.204;8.844;2022-07-30T11:38:51;100126.25;;;25.92;35.96
72570;BME280;60594;50.204;8.844;2022-07-30T11:41:18;100110.88;;;25.73;37.87
72570;BME280;60594;50.204;8.844;2022-07-30T11:43:45;100113.63;;;25.73;39.91
72570;BME280;60594;50.204;8.844;2022-07-30T11:46:12;100113.94;;;25.83;39.29
72570;BME280;60594;50.204;8.844;2022-07-30T11:48:53;100111.31;;;26.20;37.96
72570;BME280;60594;50.204;8.844;2022-07-30T11:51:20;100118.16;;;26.47;35.96
72570;BME280;60594;50.204;8.844;2022-07-30T11:54:03;100116.91;;;26.49;35.68
72570;BME280;60594;50.204;8.844;2022-07-30T11:56:31;100117.31;;;26.10;37.56
72570;BME280;60594;50.204;8.844;2022-07-30T11:59:03;100116.44;;;26.10;37.58
72570;BME280;60594;50.204;8.844;2022-07-30T12:01:33;100123.09;;;26.20;36.58
72570;BME280;60594;50.204;8.844;2022-07-30T12:04:03;100122.59;;;26.48;36.83
72570;BME280;60594;50.204;8.844;2022-07-30T12:06:31;100110.00;;;26.65;36.74
72570;BME280;60594;50.204;8.844;2022-07-30T12:08:58;100117.38;;;26.82;36.10
72570;BME280;60594;50.204;8.844;2022-07-30T12:11:32;100111.41;;;27.03;35.70
72570;BME280;60594;50.204;8.844;2022-07-30T12:14:01;100093.41;;;26.96;35.53
72570;BME280;60594;50.204;8.844;2022-07-30T12:16:35;100110.41;;;27.45;35.86
72570;BME280;60594;50.204;8.844;2022-07-30T12:19:05;100109.84;;;27.66;36.32
72570;BME280;60594;50.204;8.844;2022-07-30T12:21:32;100085.56;;;27.70;34.68
72570;BME280;60594;50.204;8.844;2022-07-30T12:24:02;100094.25;;;27.67;33.88
72570;BME280;60594;50.204;8.844;2022-07-30T12:26:31;100103.16;;;27.51;34.42
72570;BME280;60594;50.204;8.844;2022-07-30T12:29:02;100095.91;;;27.56;33.56
72570;BME280;60594;50.204;8.844;2022-07-30T12:31:30;100089.13;;;27.70;32.55
72570;BME280;60594;50.204;8.844;2022-07-30T12:33:58;100104.31;;;27.84;33.60
72570;BME280;60594;50.204;8.844;2022-07-30T12:36:31;100098.22;;;27.82;32.16
72570;BME280;60594;50.204;8.844;2022-07-30T12:39:00;100102.97;;;27.75;31.80
72570;BME280;60594;50.204;8.844;2022-07-30T12:41:44;100104.78;;;27.40;32.25
72570;BME280;60594;50.204;8.844;2022-07-30T12:47:00;100086.06;;;27.37;32.37
72570;BME280;60594;50.204;8.844;2022-07-30T12:49:29;100095.41;;;27.48;33.95
72570;BME280;60594;50.204;8.844;2022-07-30T12:51:56;100092.56;;;27.54;32.68
72570;BME280;60594;50.204;8.844;2022-07-30T12:54:24;100097.53;;;27.34;33.77
72570;BME280;60594;50.204;8.844;2022-07-30T12:56:59;100090.16;;;27.46;32.52
72570;BME280;60594;50.204;8.844;2022-07-30T12:59:26;100087.19;;;27.59;32.08
72570;BME280;60594;50.204;8.844;2022-07-30T13:01:54;100075.81;;;27.85;33.00
72570;BME280;60594;50.204;8.844;2022-07-30T13:04:25;100085.50;;;28.11;32.06
72570;BME280;60594;50.204;8.844;2022-07-30T13:09:29;100059.84;;;28.40;31.67
72570;BME280;60594;50.204;8.844;2022-07-30T13:11:56;100069.69;;;28.64;30.29
72570;BME280;60594;50.204;8.844;2022-07-30T13:14:23;100061.91;;;28.10;30.54
72570;BME280;60594;50.204;8.844;2022-07-30T13:16:49;100072.63;;;27.88;30.58
72570;BME280;60594;50.204;8.844;2022-07-30T13:19:21;100072.75;;;28.05;31.50
72570;BME280;60594;50.204;8.844;2022-07-30T13:21:47;100055.00;;;27.84;31.39
72570;BME280;60594;50.204;8.844;2022-07-30T13:24:14;100074.88;;;27.91;32.85
72570;BME280;60594;50.204;8.844;2022-07-30T13:26:41;100063.56;;;27.99;34.76
72570;BME280;60594;50.204;8.844;2022-07-30T13:29:07;100068.22;;;28.10;33.69
72570;BME280;60594;50.204;8.844;2022-07-30T13:31:35;100069.75;;;28.29;31.95
72570;BME280;60594;50.204;8.844;2022-07-30T13:34:02;100066.78;;;28.54;30.83
72570;BME280;60594;50.204;8.844;2022-07-30T13:36:29;100059.09;;;28.67;31.43
72570;BME280;60594;50.204;8.844;2022-07-30T13:38:56;100060.91;;;28.90;30.66
72570;BME280;60594;50.204;8.844;2022-07-30T13:41:22;100063.88;;;28.88;29.59
72570;BME280;60594;50.204;8.844;2022-07-30T13:43:50;100070.25;;;28.77;33.29
72570;BME280;60594;50.204;8.844;2022-07-30T13:46:17;100072.44;;;28.64;30.85
72570;BME280;60594;50.204;8.844;2022-07-30T13:48:44;100075.81;;;28.54;30.46